createdAt,value
2016-09-27T00:00:03.370Z,11.04
2016-09-27T00:01:03.131Z,11
2016-09-27T00:02:03.454Z,11
2016-09-27T00:03:03.110Z,11
2016-09-27T00:04:03.452Z,10.94
2016-09-27T00:05:03.473Z,10.95
2016-09-27T00:06:03.575Z,10.94
2016-09-27T00:07:03.203Z,10.98
2016-09-27T00:08:03.531Z,11.04
2016-09-27T00:09:03.883Z,10.95
2016-09-27T00:10:03.570Z,10.86
2016-09-27T00:11:03.582Z,10.86
2016-09-27T00:12:03.926Z,10.94
2016-09-27T00:13:03.931Z,10.9
2016-09-27T00:14:04.100Z,10.9
2016-09-27T00:15:03.676Z,10.9
2016-09-27T00:16:03.760Z,10.89
2016-09-27T00:17:03.754Z,10.87
2016-09-27T00:18:04.080Z,10.98
2016-09-27T00:19:03.789Z,10.89
2016-09-27T00:20:03.806Z,10.9
2016-09-27T00:21:04.135Z,10.98
2016-09-27T00:22:04.110Z,10.92
2016-09-27T00:23:03.511Z,10.95
2016-09-27T00:24:03.912Z,10.98
2016-09-27T00:25:04.159Z,11.02
2016-09-27T00:26:03.882Z,11.01
2016-09-27T00:27:04.204Z,10.95
2016-09-27T00:28:04.053Z,10.9
2016-09-27T00:29:04.305Z,11.01
2016-09-27T00:30:03.751Z,11.07
2016-09-27T00:31:04.334Z,11.01
2016-09-27T00:32:04.297Z,11.04
2016-09-27T00:33:04.315Z,11.12
2016-09-27T00:34:04.041Z,11.1
2016-09-27T00:35:03.811Z,11.08
2016-09-27T00:36:04.124Z,11.13
2016-09-27T00:37:04.100Z,11.05
2016-09-27T00:38:03.797Z,11.13
2016-09-27T00:39:04.119Z,11.1
2016-09-27T00:40:04.459Z,11.05
2016-09-27T00:41:04.296Z,11.13
2016-09-27T00:42:04.189Z,11.12
2016-09-27T00:43:04.606Z,11.12
2016-09-27T00:44:04.228Z,11.04
2016-09-27T00:45:04.248Z,11.04
2016-09-27T00:46:04.243Z,11.07
2016-09-27T00:47:04.288Z,11.02
2016-09-27T00:48:04.599Z,11.02
2016-09-27T00:49:04.617Z,11.02
2016-09-27T00:50:04.323Z,11.01
2016-09-27T00:51:04.405Z,11
2016-09-27T00:52:04.387Z,11
2016-09-27T00:53:04.397Z,10.87
2016-09-27T00:54:04.727Z,10.8
2016-09-27T00:55:04.124Z,10.72
2016-09-27T00:56:04.550Z,10.71
2016-09-27T00:57:04.785Z,10.71
2016-09-27T00:58:04.486Z,10.69
2016-09-27T00:59:04.518Z,10.82
2016-09-27T01:00:04.536Z,10.76
2016-09-27T01:01:04.974Z,10.65
2016-09-27T01:02:04.256Z,10.69
2016-09-27T01:03:04.583Z,10.69
2016-09-27T01:04:04.600Z,10.65
2016-09-27T01:05:04.326Z,10.69
2016-09-27T01:06:04.958Z,10.69
2016-09-27T01:07:04.963Z,10.8
2016-09-27T01:08:04.689Z,10.69
2016-09-27T01:09:04.393Z,10.76
2016-09-27T01:10:05.045Z,10.64
2016-09-27T01:11:04.739Z,10.76
2016-09-27T01:12:05.078Z,10.64
2016-09-27T01:13:04.786Z,10.65
2016-09-27T01:14:04.497Z,10.58
2016-09-27T01:15:04.824Z,10.53
2016-09-27T01:16:04.528Z,10.51
2016-09-27T01:17:04.865Z,10.57
2016-09-27T01:18:05.185Z,10.49
2016-09-27T01:19:04.897Z,10.57
2016-09-27T01:20:04.915Z,10.48
2016-09-27T01:21:04.946Z,10.59
2016-09-27T01:22:04.636Z,10.62
2016-09-27T01:23:04.972Z,10.67
2016-09-27T01:24:04.676Z,10.68
2016-09-27T01:25:05.322Z,10.67
2016-09-27T01:26:05.068Z,10.67
2016-09-27T01:27:05.356Z,10.62
2016-09-27T01:28:05.172Z,10.62
2016-09-27T01:29:05.412Z,10.62
2016-09-27T01:30:05.153Z,10.64
2016-09-27T01:31:05.122Z,10.69
2016-09-27T01:32:05.166Z,10.77
2016-09-27T01:33:05.174Z,10.62
2016-09-27T01:34:05.503Z,10.67
2016-09-27T01:35:05.210Z,10.58
2016-09-27T01:36:05.535Z,10.75
2016-09-27T01:37:05.235Z,10.67
2016-09-27T01:38:05.265Z,10.69
2016-09-27T01:39:04.975Z,10.65
2016-09-27T01:40:05.617Z,10.67
2016-09-27T01:41:05.636Z,10.72
2016-09-27T01:42:05.346Z,10.62
2016-09-27T01:43:05.668Z,10.71
2016-09-27T01:44:05.386Z,10.68
2016-09-27T01:45:05.393Z,10.61
2016-09-27T01:46:05.458Z,10.62
2016-09-27T01:47:05.746Z,10.62
2016-09-27T01:48:05.810Z,10.61
2016-09-27T01:49:05.475Z,10.65
2016-09-27T01:50:05.487Z,10.67
2016-09-27T01:51:05.514Z,10.61
2016-09-27T01:52:05.224Z,10.57
2016-09-27T01:53:05.666Z,10.55
2016-09-27T01:54:05.884Z,10.57
2016-09-27T01:55:05.574Z,10.57
2016-09-27T01:56:05.313Z,10.53
2016-09-27T01:57:05.734Z,10.48
2016-09-27T01:58:05.675Z,10.45
2016-09-27T01:59:06.060Z,10.49
2016-09-27T02:00:05.364Z,10.39
2016-09-27T02:01:05.764Z,10.34
2016-09-27T02:02:05.723Z,10.45
2016-09-27T02:03:05.734Z,10.39
2016-09-27T02:04:06.072Z,10.43
2016-09-27T02:05:05.799Z,10.42
2016-09-27T02:06:05.806Z,10.43
2016-09-27T02:07:05.825Z,10.36
2016-09-27T02:08:05.813Z,10.41
2016-09-27T02:09:05.544Z,10.41
2016-09-27T02:10:05.901Z,10.41
2016-09-27T02:11:06.261Z,10.34
2016-09-27T02:12:05.978Z,10.41
2016-09-27T02:13:05.935Z,10.42
2016-09-27T02:14:06.003Z,10.45
2016-09-27T02:15:06.032Z,10.38
2016-09-27T02:16:06.342Z,10.41
2016-09-27T02:17:06.329Z,10.31
2016-09-27T02:18:06.033Z,10.43
2016-09-27T02:19:05.823Z,10.3
2016-09-27T02:20:06.074Z,10.38
2016-09-27T02:21:05.823Z,10.27
2016-09-27T02:22:06.093Z,10.31
2016-09-27T02:23:06.442Z,10.3
2016-09-27T02:24:06.129Z,10.18
2016-09-27T02:25:06.250Z,10.18
2016-09-27T02:26:06.162Z,10.13
2016-09-27T02:27:06.555Z,10.17
2016-09-27T02:28:06.532Z,10.18
2016-09-27T02:29:06.230Z,10.06
2016-09-27T02:30:06.260Z,10.03
2016-09-27T02:31:06.623Z,10.06
2016-09-27T02:32:06.605Z,10.09
2016-09-27T02:33:06.313Z,10.05
2016-09-27T02:34:06.380Z,10.05
2016-09-27T02:35:06.659Z,10
2016-09-27T02:36:06.132Z,10
2016-09-27T02:37:06.387Z,9.92
2016-09-27T02:38:06.714Z,9.92
2016-09-27T02:39:06.416Z,9.95
2016-09-27T02:40:06.438Z,9.94
2016-09-27T02:41:06.446Z,9.95
2016-09-27T02:42:06.483Z,9.91
2016-09-27T02:43:06.188Z,9.88
2016-09-27T02:44:06.522Z,9.87
2016-09-27T02:45:06.531Z,9.82
2016-09-27T02:46:06.621Z,9.8
2016-09-27T02:47:06.897Z,9.84
2016-09-27T02:48:06.591Z,9.85
2016-09-27T02:49:06.916Z,9.77
2016-09-27T02:50:06.624Z,9.76
2016-09-27T02:51:06.336Z,9.77
2016-09-27T02:52:06.983Z,9.82
2016-09-27T02:53:06.367Z,9.74
2016-09-27T02:54:06.705Z,9.73
2016-09-27T02:55:06.401Z,9.69
2016-09-27T02:56:06.732Z,9.74
2016-09-27T02:57:07.072Z,9.76
2016-09-27T02:58:06.474Z,9.74
2016-09-27T02:59:06.802Z,9.7
2016-09-27T03:00:07.129Z,9.74
2016-09-27T03:01:06.838Z,9.67
2016-09-27T03:02:06.533Z,9.74
2016-09-27T03:03:07.329Z,9.74
2016-09-27T03:04:07.501Z,9.62
2016-09-27T03:05:07.377Z,9.67
2016-09-27T03:06:06.934Z,9.66
2016-09-27T03:07:06.635Z,9.62
2016-09-27T03:08:07.436Z,9.62
2016-09-27T03:09:07.289Z,9.58
2016-09-27T03:10:07.003Z,9.52
2016-09-27T03:11:07.343Z,9.49
2016-09-27T03:12:07.043Z,9.49
2016-09-27T03:13:07.372Z,9.45
2016-09-27T03:14:07.148Z,9.39
2016-09-27T03:15:07.104Z,9.44
2016-09-27T03:16:07.434Z,9.51
2016-09-27T03:17:07.601Z,9.44
2016-09-27T03:18:07.473Z,9.4
2016-09-27T03:19:07.563Z,9.37
2016-09-27T03:20:07.186Z,9.4
2016-09-27T03:21:07.564Z,9.3
2016-09-27T03:22:07.578Z,9.29
2016-09-27T03:23:07.602Z,9.29
2016-09-27T03:24:07.435Z,9.3
2016-09-27T03:25:07.578Z,9.27
2016-09-27T03:26:07.403Z,9.24
2016-09-27T03:27:07.526Z,9.16
2016-09-27T03:28:07.668Z,9.15
2016-09-27T03:29:07.574Z,9.12
2016-09-27T03:30:07.494Z,9.21
2016-09-27T03:31:07.492Z,9.22
2016-09-27T03:32:07.475Z,9.12
2016-09-27T03:33:07.177Z,9.11
2016-09-27T03:34:08.057Z,9.09
2016-09-27T03:35:07.470Z,9.12
2016-09-27T03:36:07.647Z,9.16
2016-09-27T03:37:07.208Z,9.11
2016-09-27T03:38:07.736Z,9.11
2016-09-27T03:39:07.470Z,9.09
2016-09-27T03:40:07.670Z,9.12
2016-09-27T03:41:07.995Z,9.09
2016-09-27T03:42:07.708Z,9.11
2016-09-27T03:43:07.933Z,9.08
2016-09-27T03:44:07.789Z,9.08
2016-09-27T03:45:07.966Z,8.97
2016-09-27T03:46:07.998Z,9.02
2016-09-27T03:47:07.706Z,9.03
2016-09-27T03:48:08.027Z,9.05
2016-09-27T03:49:07.948Z,9.03
2016-09-27T03:50:07.858Z,9.11
2016-09-27T03:51:07.847Z,9.02
2016-09-27T03:52:07.786Z,8.96
2016-09-27T03:53:08.166Z,8.97
2016-09-27T03:54:08.237Z,8.97
2016-09-27T03:55:07.529Z,9.08
2016-09-27T03:56:07.960Z,9.03
2016-09-27T03:57:07.666Z,8.87
2016-09-27T03:58:07.897Z,8.86
2016-09-27T03:59:07.930Z,8.81
2016-09-27T04:00:07.616Z,8.77
2016-09-27T04:01:07.959Z,8.75
2016-09-27T04:02:07.979Z,8.75
2016-09-27T04:03:08.034Z,8.64
2016-09-27T04:04:08.002Z,8.63
2016-09-27T04:05:08.142Z,8.64
2016-09-27T04:06:07.792Z,8.64
2016-09-27T04:07:08.459Z,8.59
2016-09-27T04:08:08.060Z,8.64
2016-09-27T04:09:08.130Z,8.53
2016-09-27T04:10:08.415Z,8.54
2016-09-27T04:11:08.181Z,8.57
2016-09-27T04:12:08.459Z,8.6
2016-09-27T04:13:08.481Z,8.59
2016-09-27T04:14:08.197Z,8.63
2016-09-27T04:15:08.210Z,8.64
2016-09-27T04:16:08.208Z,8.6
2016-09-27T04:17:08.240Z,8.6
2016-09-27T04:18:08.392Z,8.6
2016-09-27T04:19:07.981Z,8.56
2016-09-27T04:20:08.692Z,8.57
2016-09-27T04:21:08.319Z,8.53
2016-09-27T04:22:08.335Z,8.53
2016-09-27T04:23:08.038Z,8.56
2016-09-27T04:24:08.689Z,8.52
2016-09-27T04:25:08.398Z,8.54
2016-09-27T04:26:08.410Z,8.46
2016-09-27T04:27:08.721Z,8.44
2016-09-27T04:28:08.450Z,8.54
2016-09-27T04:29:08.758Z,8.44
2016-09-27T04:30:08.786Z,8.38
2016-09-27T04:31:08.200Z,8.42
2016-09-27T04:32:08.521Z,8.35
2016-09-27T04:33:08.529Z,8.34
2016-09-27T04:34:08.860Z,8.28
2016-09-27T04:35:08.891Z,8.31
2016-09-27T04:36:09.453Z,8.21
2016-09-27T04:37:08.606Z,8.17
2016-09-27T04:38:08.613Z,8.28
2016-09-27T04:39:08.635Z,8.26
2016-09-27T04:40:08.343Z,8.17
2016-09-27T04:41:08.986Z,8.14
2016-09-27T04:42:08.699Z,8.18
2016-09-27T04:43:08.713Z,8.17
2016-09-27T04:44:09.052Z,8.18
2016-09-27T04:45:08.744Z,8.13
2016-09-27T04:46:08.460Z,8.08
2016-09-27T04:47:09.101Z,8.02
2016-09-27T04:48:08.498Z,8.02
2016-09-27T04:49:09.122Z,8.02
2016-09-27T04:50:08.840Z,8.09
2016-09-27T04:51:09.173Z,8.13
2016-09-27T04:52:09.183Z,8.02
2016-09-27T04:53:09.196Z,7.98
2016-09-27T04:54:08.903Z,8.01
2016-09-27T04:55:08.633Z,8.06
2016-09-27T04:56:09.010Z,8.06
2016-09-27T04:57:09.290Z,8.06
2016-09-27T04:58:09.308Z,8.09
2016-09-27T04:59:08.996Z,8.01
2016-09-27T05:00:09.037Z,7.96
2016-09-27T05:01:08.732Z,7.99
2016-09-27T05:02:09.361Z,7.99
2016-09-27T05:03:09.071Z,8.01
2016-09-27T05:04:09.081Z,7.93
2016-09-27T05:05:09.101Z,7.93
2016-09-27T05:06:09.441Z,7.98
2016-09-27T05:07:09.143Z,7.95
2016-09-27T05:08:09.473Z,7.93
2016-09-27T05:09:09.196Z,7.93
2016-09-27T05:10:09.502Z,7.88
2016-09-27T05:11:09.328Z,7.9
2016-09-27T05:12:09.552Z,7.93
2016-09-27T05:13:09.596Z,7.83
2016-09-27T05:14:09.271Z,7.84
2016-09-27T05:15:09.298Z,7.87
2016-09-27T05:16:09.309Z,7.84
2016-09-27T05:17:09.631Z,7.84
2016-09-27T05:18:09.330Z,7.85
2016-09-27T05:19:09.377Z,7.96
2016-09-27T05:20:09.452Z,7.99
2016-09-27T05:21:09.688Z,7.95
2016-09-27T05:22:09.715Z,7.96
2016-09-27T05:23:09.720Z,8.08
2016-09-27T05:24:09.784Z,7.99
2016-09-27T05:25:09.776Z,8.03
2016-09-27T05:26:09.943Z,8.09
2016-09-27T05:27:09.494Z,8.05
2016-09-27T05:28:09.564Z,8.02
2016-09-27T05:29:09.912Z,8.16
2016-09-27T05:30:09.865Z,8.13
2016-09-27T05:31:09.882Z,8.16
2016-09-27T05:32:09.584Z,8.23
2016-09-27T05:33:09.606Z,8.17
2016-09-27T05:34:09.382Z,8.35
2016-09-27T05:35:09.942Z,8.32
2016-09-27T05:36:09.961Z,8.32
2016-09-27T05:37:09.982Z,8.31
2016-09-27T05:38:10.002Z,8.36
2016-09-27T05:39:10.133Z,8.36
2016-09-27T05:40:09.424Z,8.38
2016-09-27T05:41:09.842Z,8.35
2016-09-27T05:42:10.123Z,8.44
2016-09-27T05:43:10.152Z,8.46
2016-09-27T05:44:10.104Z,8.5
2016-09-27T05:45:09.851Z,8.56
2016-09-27T05:46:09.894Z,8.66
2016-09-27T05:47:09.934Z,8.71
2016-09-27T05:48:09.874Z,8.87
2016-09-27T05:49:09.883Z,8.96
2016-09-27T05:50:10.219Z,9
2016-09-27T05:51:09.760Z,9
2016-09-27T05:52:09.961Z,9.11
2016-09-27T05:53:10.322Z,9.11
2016-09-27T05:54:10.026Z,9.16
2016-09-27T05:55:10.338Z,9.19
2016-09-27T05:56:10.013Z,9.37
2016-09-27T05:57:10.028Z,9.76
2016-09-27T05:58:10.362Z,10.15
2016-09-27T05:59:09.775Z,10.79
2016-09-27T06:00:10.093Z,11.12
2016-09-27T06:01:09.793Z,11.59
2016-09-27T06:02:10.434Z,11.85
2016-09-27T06:03:10.444Z,12.28
2016-09-27T06:04:09.923Z,12.75
2016-09-27T06:05:10.172Z,13.05
2016-09-27T06:06:10.388Z,13.46
2016-09-27T06:07:10.200Z,13.82
2016-09-27T06:08:10.331Z,14.19
2016-09-27T06:09:10.008Z,14.48
2016-09-27T06:10:10.006Z,14.86
2016-09-27T06:11:10.393Z,15.14
2016-09-27T06:12:10.612Z,15.45
2016-09-27T06:13:10.043Z,15.69
2016-09-27T06:14:10.710Z,15.96
2016-09-27T06:15:10.377Z,16.18
2016-09-27T06:16:10.439Z,16.43
2016-09-27T06:17:10.483Z,16.74
2016-09-27T06:18:10.422Z,16.84
2016-09-27T06:19:10.477Z,17.12
2016-09-27T06:20:10.170Z,17.31
2016-09-27T06:21:10.233Z,17.5
2016-09-27T06:22:10.812Z,17.66
2016-09-27T06:23:10.541Z,17.98
2016-09-27T06:24:10.609Z,18.16
2016-09-27T06:25:10.567Z,18.42
2016-09-27T06:26:10.906Z,18.61
2016-09-27T06:27:10.453Z,18.83
2016-09-27T06:28:10.941Z,19.01
2016-09-27T06:29:10.973Z,19.24
2016-09-27T06:30:10.682Z,19.38
2016-09-27T06:31:10.503Z,19.6
2016-09-27T06:32:10.742Z,19.84
2016-09-27T06:33:10.737Z,20.02
2016-09-27T06:34:10.832Z,20.3
2016-09-27T06:35:11.109Z,20.48
2016-09-27T06:36:11.121Z,20.6
2016-09-27T06:37:11.186Z,20.77
2016-09-27T06:38:10.871Z,20.8
2016-09-27T06:39:10.880Z,21.1
2016-09-27T06:40:10.920Z,21.35
2016-09-27T06:41:10.929Z,21.48
2016-09-27T06:42:10.953Z,21.85
2016-09-27T06:43:10.663Z,22.04
2016-09-27T06:44:10.998Z,22.16
2016-09-27T06:45:11.028Z,22.44
2016-09-27T06:46:10.783Z,22.38
2016-09-27T06:47:11.093Z,22.53
2016-09-27T06:48:11.099Z,22.8
2016-09-27T06:49:10.807Z,22.96
2016-09-27T06:50:11.449Z,23.1
2016-09-27T06:51:10.861Z,23.32
2016-09-27T06:52:11.198Z,23.44
2016-09-27T06:53:11.567Z,23.63
2016-09-27T06:54:11.657Z,23.84
2016-09-27T06:55:11.579Z,23.96
2016-09-27T06:56:11.310Z,24.06
2016-09-27T06:57:11.326Z,24.19
2016-09-27T06:58:11.339Z,24.25
2016-09-27T06:59:11.678Z,24.26
2016-09-27T07:00:11.385Z,24.4
2016-09-27T07:01:11.731Z,24.43
2016-09-27T07:02:11.507Z,24.58
2016-09-27T07:03:11.146Z,24.61
2016-09-27T07:04:11.479Z,24.77
2016-09-27T07:05:11.834Z,25
2016-09-27T07:06:11.947Z,25.04
2016-09-27T07:07:11.873Z,25.15
2016-09-27T07:08:11.575Z,25.21
2016-09-27T07:09:11.308Z,25.29
2016-09-27T07:10:11.669Z,25.33
2016-09-27T07:11:11.671Z,25.36
2016-09-27T07:12:11.989Z,25.37
2016-09-27T07:13:11.396Z,25.4
2016-09-27T07:14:11.862Z,25.41
2016-09-27T07:15:11.822Z,25.48
2016-09-27T07:16:12.147Z,25.56
2016-09-27T07:17:12.168Z,25.61
2016-09-27T07:18:11.842Z,25.66
2016-09-27T07:19:11.950Z,25.66
2016-09-27T07:20:11.598Z,25.49
2016-09-27T07:21:11.759Z,25.25
2016-09-27T07:22:11.947Z,25.07
2016-09-27T07:23:12.010Z,24.46
2016-09-27T07:24:11.999Z,23.73
2016-09-27T07:25:12.025Z,22.81
2016-09-27T07:26:12.419Z,22.03
2016-09-27T07:27:12.104Z,21.22
2016-09-27T07:28:12.455Z,20.46
2016-09-27T07:29:12.104Z,19.81
2016-09-27T07:30:11.842Z,19.32
2016-09-27T07:31:12.486Z,18.91
2016-09-27T07:32:11.984Z,18.58
2016-09-27T07:33:11.906Z,18.28
2016-09-27T07:34:44.337Z,17.9
2016-09-27T07:35:12.577Z,17.73
2016-09-27T07:36:12.627Z,17.54
2016-09-27T07:37:12.320Z,17.41
2016-09-27T07:38:12.718Z,17.23
2016-09-27T07:39:12.377Z,17.28
2016-09-27T07:40:12.167Z,17.14
2016-09-27T07:41:12.457Z,17.09
2016-09-27T07:42:12.438Z,17.01
2016-09-27T07:43:12.460Z,16.97
2016-09-27T07:44:12.485Z,16.99
2016-09-27T07:45:12.507Z,16.84
2016-09-27T07:46:12.834Z,16.8
2016-09-27T07:47:12.892Z,16.89
2016-09-27T07:48:12.585Z,16.86
2016-09-27T07:49:12.587Z,16.82
2016-09-27T07:50:12.605Z,16.83
2016-09-27T07:51:12.650Z,16.87
2016-09-27T07:52:12.975Z,16.82
2016-09-27T07:53:12.696Z,16.83
2016-09-27T07:54:13.011Z,16.84
2016-09-27T07:55:12.417Z,16.95
2016-09-27T07:56:12.743Z,16.95
2016-09-27T07:57:12.779Z,16.97
2016-09-27T07:58:12.498Z,16.99
2016-09-27T07:59:12.521Z,16.98
2016-09-27T08:00:13.150Z,17.09
2016-09-27T08:01:12.881Z,17.04
2016-09-27T08:02:13.298Z,17.16
2016-09-27T08:03:12.919Z,17.02
2016-09-27T08:04:13.294Z,17.13
2016-09-27T08:05:12.977Z,17.16
2016-09-27T08:06:12.677Z,17.13
2016-09-27T08:07:13.318Z,17.13
2016-09-27T08:08:13.092Z,17.17
2016-09-27T08:09:13.358Z,17.28
2016-09-27T08:10:13.261Z,17.22
2016-09-27T08:11:13.449Z,17.31
2016-09-27T08:12:13.103Z,17.37
2016-09-27T08:13:13.149Z,17.31
2016-09-27T08:14:13.468Z,17.39
2016-09-27T08:15:12.888Z,17.34
2016-09-27T08:16:13.211Z,17.35
2016-09-27T08:17:12.930Z,17.41
2016-09-27T08:18:13.448Z,17.34
2016-09-27T08:19:13.489Z,17.41
2016-09-27T08:20:13.500Z,17.41
2016-09-27T08:21:13.899Z,17.53
2016-09-27T08:22:13.871Z,17.57
2016-09-27T08:23:13.516Z,17.59
2016-09-27T08:24:13.579Z,17.63
2016-09-27T08:25:13.960Z,17.69
2016-09-27T08:26:13.870Z,17.82
2016-09-27T08:27:13.886Z,17.78
2016-09-27T08:28:13.579Z,17.91
2016-09-27T08:29:13.860Z,17.94
2016-09-27T08:30:14.621Z,17.98
2016-09-27T08:31:13.645Z,17.95
2016-09-27T08:32:13.571Z,17.98
2016-09-27T08:33:13.598Z,17.98
2016-09-27T08:34:13.631Z,17.91
2016-09-27T08:35:14.022Z,18
2016-09-27T08:36:14.080Z,18.02
2016-09-27T08:37:14.029Z,18.09
2016-09-27T08:38:14.052Z,18.13
2016-09-27T08:39:14.062Z,18.12
2016-09-27T08:40:14.140Z,18.12
2016-09-27T08:41:14.161Z,18.13
2016-09-27T08:42:13.822Z,18.15
2016-09-27T08:43:13.950Z,18.26
2016-09-27T08:44:13.839Z,18.18
2016-09-27T08:45:13.887Z,18.16
2016-09-27T08:46:14.270Z,18.12
2016-09-27T08:47:14.329Z,18.26
2016-09-27T08:48:14.034Z,18.26
2016-09-27T08:49:14.023Z,18.31
2016-09-27T08:50:14.346Z,18.39
2016-09-27T08:51:14.090Z,18.48
2016-09-27T08:52:14.220Z,18.53
2016-09-27T08:53:14.051Z,18.51
2016-09-27T08:54:14.379Z,18.61
2016-09-27T08:55:14.100Z,18.61
2016-09-27T08:56:14.442Z,18.71
2016-09-27T08:57:14.160Z,18.66
2016-09-27T08:58:14.693Z,18.63
2016-09-27T08:59:14.213Z,18.66
2016-09-27T09:00:14.542Z,18.64
2016-09-27T09:01:14.654Z,18.64
2016-09-27T09:02:14.250Z,18.58
2016-09-27T09:03:13.983Z,18.67
2016-09-27T09:04:14.314Z,18.67
2016-09-27T09:05:14.013Z,18.71
2016-09-27T09:06:14.670Z,18.71
2016-09-27T09:07:14.707Z,18.73
2016-09-27T09:08:14.741Z,18.79
2016-09-27T09:09:14.754Z,18.92
2016-09-27T09:10:14.484Z,18.86
2016-09-27T09:11:14.830Z,18.94
2016-09-27T09:12:14.498Z,18.89
2016-09-27T09:13:14.822Z,18.94
2016-09-27T09:14:14.608Z,19.01
2016-09-27T09:15:14.882Z,19.05
2016-09-27T09:16:14.338Z,19.11
2016-09-27T09:17:14.637Z,19.2
2016-09-27T09:18:14.951Z,19.17
2016-09-27T09:19:14.338Z,19.24
2016-09-27T09:20:14.720Z,19.32
2016-09-27T09:21:14.723Z,19.34
2016-09-27T09:22:14.735Z,19.29
2016-09-27T09:23:14.758Z,19.37
2016-09-27T09:24:15.091Z,19.44
2016-09-27T09:25:14.484Z,19.41
2016-09-27T09:26:14.833Z,19.35
2016-09-27T09:27:14.852Z,19.35
2016-09-27T09:28:15.186Z,19.32
2016-09-27T09:29:15.195Z,19.44
2016-09-27T09:30:14.917Z,19.53
2016-09-27T09:31:15.262Z,19.56
2016-09-27T09:32:15.295Z,19.56
2016-09-27T09:33:15.300Z,19.66
2016-09-27T09:34:14.711Z,19.72
2016-09-27T09:35:15.050Z,19.63
2016-09-27T09:36:15.060Z,19.52
2016-09-27T09:37:14.779Z,19.6
2016-09-27T09:38:15.119Z,19.63
2016-09-27T09:39:15.145Z,19.64
2016-09-27T09:40:15.292Z,19.62
2016-09-27T09:41:15.503Z,19.66
2016-09-27T09:42:15.534Z,19.7
2016-09-27T09:43:15.547Z,19.79
2016-09-27T09:44:15.578Z,19.66
2016-09-27T09:45:15.593Z,19.78
2016-09-27T09:46:15.303Z,19.82
2016-09-27T09:47:15.331Z,19.89
2016-09-27T09:48:15.385Z,19.89
2016-09-27T09:49:15.724Z,19.87
2016-09-27T09:50:15.416Z,19.84
2016-09-27T09:51:15.538Z,19.79
2016-09-27T09:52:15.443Z,19.97
2016-09-27T09:53:15.944Z,19.93
2016-09-27T09:54:15.188Z,19.89
2016-09-27T09:55:15.848Z,19.94
2016-09-27T09:56:15.254Z,20.11
2016-09-27T09:57:15.624Z,20.1
2016-09-27T09:58:15.614Z,20.24
2016-09-27T09:59:15.623Z,20.21
2016-09-27T10:00:15.949Z,20.29
2016-09-27T10:01:15.970Z,20.3
2016-09-27T10:02:15.795Z,20.29
2016-09-27T10:03:16.027Z,20.36
2016-09-27T10:04:15.732Z,20.34
2016-09-27T10:05:16.114Z,20.3
2016-09-27T10:06:16.115Z,20.33
2016-09-27T10:07:15.822Z,20.39
2016-09-27T10:08:16.162Z,20.39
2016-09-27T10:09:15.914Z,20.33
2016-09-27T10:10:15.888Z,20.37
2016-09-27T10:11:15.969Z,20.36
2016-09-27T10:12:16.049Z,20.46
2016-09-27T10:13:16.271Z,20.42
2016-09-27T10:14:16.002Z,20.52
2016-09-27T10:15:16.114Z,20.39
2016-09-27T10:16:15.744Z,20.44
2016-09-27T10:17:16.153Z,20.46
2016-09-27T10:18:15.859Z,20.52
2016-09-27T10:19:16.126Z,20.55
2016-09-27T10:20:16.132Z,20.63
2016-09-27T10:21:15.842Z,20.58
2016-09-27T10:22:16.501Z,20.63
2016-09-27T10:23:16.213Z,20.63
2016-09-27T10:24:16.233Z,20.63
2016-09-27T10:25:16.268Z,20.67
2016-09-27T10:26:16.643Z,20.68
2016-09-27T10:27:16.631Z,20.68
2016-09-27T10:28:16.645Z,20.68
2016-09-27T10:29:16.364Z,20.6
2016-09-27T10:30:16.388Z,20.68
2016-09-27T10:31:16.789Z,20.68
2016-09-27T10:32:16.132Z,20.67
2016-09-27T10:33:16.459Z,20.67
2016-09-27T10:34:16.483Z,20.67
2016-09-27T10:35:16.824Z,20.67
2016-09-27T10:36:16.532Z,20.71
2016-09-27T10:37:16.862Z,20.8
2016-09-27T10:38:16.569Z,20.78
2016-09-27T10:39:16.291Z,20.75
2016-09-27T10:40:16.322Z,20.71
2016-09-27T10:41:16.672Z,20.75
2016-09-27T10:42:16.727Z,20.77
2016-09-27T10:43:16.709Z,20.83
2016-09-27T10:44:16.734Z,20.89
2016-09-27T10:45:17.091Z,20.83
2016-09-27T10:46:16.776Z,20.93
2016-09-27T10:47:16.492Z,20.86
2016-09-27T10:48:17.144Z,20.9
2016-09-27T10:49:16.543Z,20.89
2016-09-27T10:50:17.082Z,20.93
2016-09-27T10:51:16.939Z,21.04
2016-09-27T10:52:16.611Z,21.03
2016-09-27T10:53:16.643Z,21.05
2016-09-27T10:54:16.673Z,21.04
2016-09-27T10:55:17.367Z,21.14
2016-09-27T10:56:17.084Z,21.14
2016-09-27T10:57:17.043Z,21.19
2016-09-27T10:58:17.382Z,21.11
2016-09-27T10:59:17.103Z,21.15
2016-09-27T11:00:17.133Z,21.2
2016-09-27T11:01:17.203Z,21.14
2016-09-27T11:02:16.868Z,21.23
2016-09-27T11:03:16.892Z,21.23
2016-09-27T11:04:17.244Z,21.25
2016-09-27T11:05:16.943Z,21.35
2016-09-27T11:06:17.282Z,21.37
2016-09-27T11:07:17.312Z,21.41
2016-09-27T11:08:17.641Z,21.44
2016-09-27T11:09:17.343Z,21.44
2016-09-27T11:10:17.699Z,21.37
2016-09-27T11:11:49.393Z,21.37
2016-09-27T11:12:17.491Z,21.33
2016-09-27T11:13:17.770Z,21.3
2016-09-27T11:14:17.790Z,21.33
2016-09-27T11:15:17.512Z,21.32
2016-09-27T11:16:17.899Z,21.35
2016-09-27T11:17:17.255Z,21.41
2016-09-27T11:18:17.581Z,21.45
2016-09-27T11:19:17.923Z,21.47
2016-09-27T11:20:17.661Z,21.54
2016-09-27T11:21:17.973Z,21.53
2016-09-27T11:22:17.690Z,21.54
2016-09-27T11:23:17.764Z,21.54
2016-09-27T11:24:17.811Z,21.51
2016-09-27T11:25:18.123Z,21.56
2016-09-27T11:26:18.158Z,21.48
2016-09-27T11:27:18.170Z,21.5
2016-09-27T11:28:18.292Z,21.53
2016-09-27T11:29:18.202Z,21.6
2016-09-27T11:30:18.006Z,21.54
2016-09-27T11:31:17.967Z,21.51
2016-09-27T11:32:17.633Z,21.62
2016-09-27T11:33:17.960Z,21.59
2016-09-27T11:34:17.991Z,21.5
2016-09-27T11:35:18.340Z,21.56
2016-09-27T11:36:18.423Z,21.58
2016-09-27T11:37:18.461Z,21.63
2016-09-27T11:38:18.089Z,21.6
2016-09-27T11:39:50.123Z,21.6
2016-09-27T11:40:18.154Z,21.58
2016-09-27T11:41:17.853Z,21.6
2016-09-27T11:42:17.894Z,21.58
2016-09-27T11:43:18.216Z,21.6
2016-09-27T11:44:18.259Z,21.58
2016-09-27T11:45:17.967Z,21.56
2016-09-27T11:46:18.713Z,21.66
2016-09-27T11:47:18.631Z,21.68
2016-09-27T11:48:18.364Z,21.77
2016-09-27T11:49:18.364Z,21.84
2016-09-27T11:50:18.760Z,21.88
2016-09-27T11:51:18.431Z,21.84
2016-09-27T11:52:18.765Z,21.88
2016-09-27T11:53:18.483Z,22
2016-09-27T11:54:18.503Z,22.08
2016-09-27T11:55:18.832Z,22.06
2016-09-27T11:56:18.292Z,22.1
2016-09-27T11:57:19.011Z,22.08
2016-09-27T11:58:18.598Z,22.19
2016-09-27T11:59:18.690Z,22.23
2016-09-27T12:00:18.662Z,22.23
2016-09-27T12:01:18.782Z,22.3
2016-09-27T12:02:18.386Z,22.34
2016-09-27T12:03:18.741Z,22.43
2016-09-27T12:04:19.070Z,22.56
2016-09-27T12:05:18.782Z,22.67
2016-09-27T12:06:18.820Z,22.77
2016-09-27T12:07:18.842Z,22.8
2016-09-27T12:08:18.860Z,22.88
2016-09-27T12:09:18.582Z,22.91
2016-09-27T12:10:18.905Z,23.01
2016-09-27T12:11:19.252Z,23.11
2016-09-27T12:12:19.291Z,23.06
2016-09-27T12:13:19.312Z,23.02
2016-09-27T12:14:19.015Z,23.04
2016-09-27T12:15:19.343Z,22.98
2016-09-27T12:16:19.114Z,22.96
2016-09-27T12:17:19.399Z,22.86
2016-09-27T12:18:19.427Z,22.86
2016-09-27T12:19:19.153Z,22.84
2016-09-27T12:20:19.181Z,22.8
2016-09-27T12:21:19.215Z,22.77
2016-09-27T12:22:19.229Z,22.73
2016-09-27T12:23:19.253Z,22.81
2016-09-27T12:24:19.287Z,22.71
2016-09-27T12:25:19.621Z,22.77
2016-09-27T12:26:19.033Z,22.86
2016-09-27T12:27:19.355Z,22.8
2016-09-27T12:28:19.700Z,22.78
2016-09-27T12:29:19.412Z,22.74
2016-09-27T12:30:19.446Z,22.65
2016-09-27T12:31:19.541Z,22.58
2016-09-27T12:32:19.807Z,22.58
2016-09-27T12:33:19.835Z,22.51
2016-09-27T12:34:19.541Z,22.46
2016-09-27T12:35:19.581Z,22.36
2016-09-27T12:36:20.033Z,22.26
2016-09-27T12:37:19.618Z,22.26
2016-09-27T12:38:20.063Z,22.3
2016-09-27T12:39:20.289Z,22.34
2016-09-27T12:40:19.755Z,22.33
2016-09-27T12:41:20.293Z,22.31
2016-09-27T12:42:20.259Z,22.3
2016-09-27T12:43:20.268Z,22.36
2016-09-27T12:44:19.499Z,22.26
2016-09-27T12:45:20.291Z,22.14
2016-09-27T12:46:19.642Z,22.18
2016-09-27T12:47:19.571Z,22.03
2016-09-27T12:48:20.217Z,21.99
2016-09-27T12:49:20.248Z,22
2016-09-27T12:50:20.101Z,22
2016-09-27T12:51:19.738Z,21.83
2016-09-27T12:52:20.176Z,21.84
2016-09-27T12:53:20.419Z,21.85
2016-09-27T12:54:20.585Z,21.83
2016-09-27T12:55:20.401Z,21.8
2016-09-27T12:56:20.167Z,21.74
2016-09-27T12:57:20.166Z,21.8
2016-09-27T12:58:19.862Z,21.62
2016-09-27T12:59:20.221Z,21.68
2016-09-27T13:00:20.235Z,21.68
2016-09-27T13:01:20.670Z,21.65
2016-09-27T13:02:20.276Z,21.66